createdAt,value
2018-03-17T00:00:09.826Z,50.90
2018-03-17T00:02:37.406Z,46.73
2018-03-17T00:05:04.968Z,48.93
2018-03-17T00:07:32.528Z,47.87
2018-03-17T00:10:00.092Z,49.33
2018-03-17T00:12:27.643Z,47.53
2018-03-17T00:14:55.201Z,47.40
2018-03-17T00:17:22.752Z,45.40
2018-03-17T00:19:50.328Z,47.53
2018-03-17T00:22:17.980Z,47.57
2018-03-17T00:24:45.531Z,48.23
2018-03-17T00:27:13.081Z,44.90
2018-03-17T00:29:40.770Z,46.00
2018-03-17T00:32:08.324Z,46.87
2018-03-17T00:34:35.886Z,49.33
2018-03-17T00:37:03.451Z,46.80
2018-03-17T00:39:31.007Z,45.17
2018-03-17T00:41:58.563Z,41.80
2018-03-17T00:44:26.140Z,45.33
2018-03-17T00:46:53.703Z,44.33
2018-03-17T00:49:21.348Z,43.90
2018-03-17T00:51:48.925Z,44.63
2018-03-17T00:54:16.584Z,43.30
2018-03-17T00:56:44.255Z,45.23
2018-03-17T00:59:11.915Z,42.77
2018-03-17T01:01:39.479Z,43.07
2018-03-17T01:04:07.018Z,41.27
2018-03-17T01:06:34.584Z,40.23
2018-03-17T01:09:02.138Z,42.67
2018-03-17T01:11:29.700Z,44.20
2018-03-17T01:13:57.272Z,42.73
2018-03-17T01:16:24.829Z,44.87
2018-03-17T01:18:52.388Z,44.53
2018-03-17T01:21:20.057Z,45.50
2018-03-17T01:23:47.616Z,44.70
2018-03-17T01:26:15.174Z,44.47
2018-03-17T01:28:42.749Z,45.27
2018-03-17T01:31:10.321Z,47.20
2018-03-17T01:33:37.877Z,45.03
2018-03-17T01:36:05.530Z,45.17
2018-03-17T01:38:33.070Z,44.80
2018-03-17T01:41:00.624Z,45.53
2018-03-17T01:43:28.188Z,45.43
2018-03-17T01:45:55.758Z,48.63
2018-03-17T01:48:23.307Z,47.40
2018-03-17T01:50:50.872Z,46.10
2018-03-17T01:53:18.421Z,46.60
2018-03-17T01:55:45.975Z,47.33
2018-03-17T01:58:13.547Z,47.33
2018-03-17T02:00:41.122Z,44.83
2018-03-17T02:03:08.687Z,52.33
2018-03-17T02:05:36.296Z,48.40
2018-03-17T02:08:04.608Z,52.80
2018-03-17T02:10:32.152Z,47.37
2018-03-17T02:12:59.727Z,48.00
2018-03-17T02:15:27.319Z,49.03
2018-03-17T02:17:54.974Z,46.63
2018-03-17T02:20:22.634Z,49.20
2018-03-17T02:22:50.192Z,46.93
2018-03-17T02:25:17.751Z,47.00
2018-03-17T02:27:45.318Z,45.03
2018-03-17T02:30:12.876Z,45.63
2018-03-17T02:32:40.442Z,43.20
2018-03-17T02:35:08.010Z,46.00
2018-03-17T02:37:35.548Z,44.43
2018-03-17T02:40:03.087Z,43.20
2018-03-17T02:42:30.654Z,42.43
2018-03-17T02:44:58.206Z,47.03
2018-03-17T02:47:25.818Z,44.67
2018-03-17T02:49:53.399Z,42.50
2018-03-17T02:52:20.956Z,42.90
2018-03-17T02:54:48.514Z,44.17
2018-03-17T02:57:16.093Z,44.13
2018-03-17T02:59:43.718Z,46.20
2018-03-17T03:02:11.259Z,40.87
2018-03-17T03:04:38.951Z,43.60
2018-03-17T03:07:06.494Z,42.67
2018-03-17T03:09:34.059Z,42.57
2018-03-17T03:12:01.630Z,39.00
2018-03-17T03:14:29.305Z,41.20
2018-03-17T03:16:56.861Z,42.20
2018-03-17T03:19:24.441Z,42.97
2018-03-17T03:21:52.761Z,41.27
2018-03-17T03:24:20.303Z,39.97
2018-03-17T03:26:48.629Z,41.77
2018-03-17T03:29:16.246Z,39.97
2018-03-17T03:31:44.567Z,39.77
2018-03-17T03:34:12.248Z,40.17
2018-03-17T03:36:39.972Z,42.67
2018-03-17T03:39:07.517Z,41.10
2018-03-17T03:41:35.078Z,43.33
2018-03-17T03:44:02.679Z,43.13
2018-03-17T03:46:30.338Z,43.63
2018-03-17T03:48:58.004Z,44.17
2018-03-17T03:51:25.570Z,39.73
2018-03-17T03:53:53.228Z,40.37
2018-03-17T03:56:20.887Z,41.93
2018-03-17T03:58:48.436Z,43.27
2018-03-17T04:01:16.010Z,40.53
2018-03-17T04:03:43.576Z,41.43
2018-03-17T04:06:11.140Z,40.40
2018-03-17T04:08:38.706Z,45.90
2018-03-17T04:11:06.311Z,43.63
2018-03-17T04:13:34.644Z,44.57
2018-03-17T04:16:02.187Z,46.50
2018-03-17T04:18:29.750Z,46.53
2018-03-17T04:20:57.295Z,47.43
2018-03-17T04:23:24.852Z,46.67
2018-03-17T04:25:52.430Z,43.47
2018-03-17T04:28:19.984Z,44.67
2018-03-17T04:30:47.546Z,43.53
2018-03-17T04:33:15.129Z,42.57
2018-03-17T04:35:42.787Z,39.37
2018-03-17T04:38:10.351Z,40.60
2018-03-17T04:40:38.015Z,39.67
2018-03-17T04:43:05.583Z,38.47
2018-03-17T04:45:33.314Z,37.70
2018-03-17T04:48:00.868Z,40.77
2018-03-17T04:50:28.450Z,37.30
2018-03-17T04:52:56.000Z,38.77
2018-03-17T04:55:23.679Z,36.87
2018-03-17T04:57:51.257Z,35.60
2018-03-17T05:00:18.989Z,35.57
2018-03-17T05:02:46.665Z,37.33
2018-03-17T05:05:14.209Z,36.67
2018-03-17T05:07:41.794Z,36.57
2018-03-17T05:10:09.388Z,33.77
2018-03-17T05:12:37.716Z,35.83
2018-03-17T05:15:05.282Z,34.33
2018-03-17T05:17:32.865Z,38.37
2018-03-17T05:20:00.432Z,37.87
2018-03-17T05:22:28.091Z,36.27
2018-03-17T05:24:55.675Z,38.47
2018-03-17T05:27:24.003Z,39.10
2018-03-17T05:29:51.587Z,38.47
2018-03-17T05:32:19.168Z,37.03
2018-03-17T05:34:47.498Z,39.73
2018-03-17T05:37:15.060Z,39.20
2018-03-17T05:39:42.631Z,39.07
2018-03-17T05:42:10.189Z,45.43
2018-03-17T05:44:37.734Z,37.90
2018-03-17T05:47:05.330Z,35.67
2018-03-17T05:49:32.986Z,42.33
2018-03-17T05:52:00.670Z,40.37
2018-03-17T05:54:28.325Z,42.13
2018-03-17T05:56:55.889Z,41.73
2018-03-17T05:59:23.456Z,41.47
2018-03-17T06:01:51.046Z,45.07
2018-03-17T06:04:19.549Z,51.43
2018-03-17T06:06:47.133Z,55.87
2018-03-17T06:09:14.810Z,59.10
2018-03-17T06:11:42.465Z,56.40
2018-03-17T06:14:10.027Z,79.90
2018-03-17T06:16:37.621Z,72.93
2018-03-17T06:19:05.260Z,67.03
2018-03-17T06:21:32.814Z,77.30
2018-03-17T06:24:00.499Z,69.67
2018-03-17T06:26:28.074Z,67.73
2018-03-17T06:28:56.404Z,82.97
2018-03-17T06:31:24.082Z,74.10
2018-03-17T06:33:51.754Z,75.87
2018-03-17T06:36:19.307Z,71.93
2018-03-17T06:38:46.905Z,67.60
2018-03-17T06:41:14.642Z,60.03
2018-03-17T06:43:42.206Z,65.37
2018-03-17T06:46:09.813Z,56.73
2018-03-17T06:48:37.374Z,74.57
2018-03-17T06:51:04.936Z,54.87
2018-03-17T06:53:32.533Z,55.13
2018-03-17T06:56:00.208Z,54.77
2018-03-17T06:58:27.771Z,53.23
2018-03-17T07:00:55.350Z,50.33
2018-03-17T07:03:22.947Z,53.73
2018-03-17T07:05:50.497Z,50.83
2018-03-17T07:08:18.833Z,48.17
2018-03-17T07:10:46.397Z,51.70
2018-03-17T07:13:13.960Z,54.37
2018-03-17T07:15:41.556Z,51.67
2018-03-17T07:18:09.887Z,52.13
2018-03-17T07:20:37.440Z,44.37
2018-03-17T07:23:05.022Z,46.90
2018-03-17T07:25:32.603Z,47.63
2018-03-17T07:28:00.935Z,46.30
2018-03-17T07:30:28.615Z,44.70
2018-03-17T07:32:56.173Z,45.40
2018-03-17T07:35:23.842Z,43.27
2018-03-17T07:37:51.556Z,50.27
2018-03-17T07:40:19.869Z,45.13
2018-03-17T07:42:47.449Z,39.37
2018-03-17T07:45:15.108Z,40.67
2018-03-17T07:47:42.664Z,34.40
2018-03-17T07:50:10.213Z,36.57
2018-03-17T07:52:37.794Z,37.27
2018-03-17T07:55:05.458Z,36.83
2018-03-17T07:57:33.040Z,40.70
2018-03-17T08:00:00.684Z,32.53
2018-03-17T08:02:28.358Z,32.67
2018-03-17T08:04:56.083Z,34.27
2018-03-17T08:07:23.667Z,29.97
2018-03-17T08:09:51.240Z,33.40
2018-03-17T08:12:18.903Z,34.43
2018-03-17T08:14:46.484Z,32.00
2018-03-17T08:17:14.806Z,34.50
2018-03-17T08:19:42.368Z,31.63
2018-03-17T08:22:10.058Z,29.90
2018-03-17T08:24:37.632Z,32.47
2018-03-17T08:27:05.975Z,34.37
2018-03-17T08:29:33.558Z,27.97
2018-03-17T08:32:01.739Z,30.17
2018-03-17T08:34:30.064Z,29.17
2018-03-17T08:36:58.913Z,25.77
2018-03-17T08:39:26.539Z,26.13
2018-03-17T08:41:55.715Z,23.60
2018-03-17T08:44:23.308Z,26.60
2018-03-17T08:46:50.866Z,26.83
2018-03-17T08:49:18.458Z,26.27
2018-03-17T08:51:46.043Z,25.80
2018-03-17T08:54:13.754Z,27.60
2018-03-17T08:56:41.347Z,51.00
2018-03-17T08:59:09.073Z,21.40
2018-03-17T09:01:36.626Z,25.20
2018-03-17T09:04:04.227Z,22.67
2018-03-17T09:06:31.802Z,26.40
2018-03-17T09:08:59.356Z,22.63
2018-03-17T09:11:26.922Z,22.00
2018-03-17T09:13:54.567Z,23.87
2018-03-17T09:16:22.237Z,22.10
2018-03-17T09:18:49.801Z,24.97
2018-03-17T09:21:17.379Z,21.73
2018-03-17T09:23:44.940Z,23.83
2018-03-17T09:26:13.300Z,24.50
2018-03-17T09:28:40.866Z,22.80
2018-03-17T09:31:08.621Z,24.60
2018-03-17T09:33:36.175Z,28.90
2018-03-17T09:36:03.757Z,24.90
2018-03-17T09:38:31.334Z,26.70
2018-03-17T09:40:59.962Z,26.40
2018-03-17T09:43:27.542Z,23.77
2018-03-17T09:45:55.101Z,22.80
2018-03-17T09:48:22.765Z,24.83
2018-03-17T09:50:50.337Z,25.27
2018-03-17T09:53:17.892Z,33.10
2018-03-17T09:55:45.459Z,27.47
2018-03-17T09:58:13.043Z,26.50
2018-03-17T10:00:41.406Z,34.40
2018-03-17T10:03:08.959Z,34.93
2018-03-17T10:05:36.616Z,27.57
2018-03-17T10:08:04.282Z,27.63
2018-03-17T10:10:31.964Z,29.07
2018-03-17T10:12:59.547Z,30.40
2018-03-17T10:15:27.894Z,26.87
2018-03-17T10:17:55.559Z,29.27
2018-03-17T10:20:23.224Z,32.73
2018-03-17T10:22:50.793Z,43.13
2018-03-17T10:25:18.365Z,41.10
2018-03-17T10:27:45.955Z,30.37
2018-03-17T10:30:13.523Z,33.83
2018-03-17T10:32:41.090Z,31.00
2018-03-17T10:35:08.689Z,29.80
2018-03-17T10:37:36.245Z,34.37
2018-03-17T10:40:03.822Z,27.23
2018-03-17T10:42:31.472Z,29.60
2018-03-17T10:44:59.038Z,32.17
2018-03-17T10:47:26.606Z,39.70
2018-03-17T10:49:54.184Z,29.80
2018-03-17T10:52:22.527Z,29.73
2018-03-17T10:54:50.086Z,27.53
2018-03-17T10:57:17.762Z,38.47
2018-03-17T10:59:45.338Z,28.53
2018-03-17T11:02:12.904Z,29.70
2018-03-17T11:04:41.264Z,28.93
2018-03-17T11:07:08.851Z,30.40
2018-03-17T11:09:37.198Z,38.03
2018-03-17T11:12:05.691Z,28.23
2018-03-17T11:14:33.335Z,27.23
2018-03-17T11:17:00.902Z,30.70
2018-03-17T11:19:28.568Z,25.43
2018-03-17T11:21:56.235Z,24.17
2018-03-17T11:24:23.794Z,26.33
2018-03-17T11:26:51.445Z,26.63
2018-03-17T11:29:19.002Z,28.53
2018-03-17T11:31:46.572Z,25.20
2018-03-17T11:34:14.240Z,22.63
2018-03-17T11:36:42.817Z,29.87
2018-03-17T11:39:10.492Z,23.13
2018-03-17T11:41:38.126Z,26.57
2018-03-17T11:44:05.689Z,24.80
2018-03-17T11:46:33.274Z,22.73
2018-03-17T11:49:00.853Z,27.67
2018-03-17T11:51:28.419Z,23.47
2018-03-17T11:53:55.992Z,23.23
2018-03-17T11:56:24.429Z,20.83
2018-03-17T11:58:51.980Z,22.67
2018-03-17T12:01:19.541Z,21.13
2018-03-17T12:03:47.118Z,23.10
2018-03-17T12:06:14.687Z,22.73
2018-03-17T12:08:42.257Z,22.10
2018-03-17T12:11:09.842Z,21.73
2018-03-17T12:13:38.157Z,21.97
2018-03-17T12:16:05.748Z,22.50
2018-03-17T12:18:33.416Z,20.20
2018-03-17T12:21:00.987Z,20.67
2018-03-17T12:23:28.559Z,19.60
2018-03-17T12:25:56.899Z,18.97
2018-03-17T12:28:24.484Z,21.47
2018-03-17T12:30:52.043Z,19.97
2018-03-17T12:33:19.709Z,21.87
2018-03-17T12:35:47.357Z,19.30
2018-03-17T12:38:14.919Z,21.30
2018-03-17T12:40:42.508Z,19.00
2018-03-17T12:43:10.827Z,20.53
2018-03-17T12:45:43.162Z,18.40
2018-03-17T12:48:23.559Z,18.77
2018-03-17T12:50:53.068Z,18.47
2018-03-17T12:53:20.615Z,19.33
2018-03-17T12:55:48.175Z,19.17
2018-03-17T12:58:15.743Z,18.20
2018-03-17T13:00:43.323Z,18.37
2018-03-17T13:03:10.894Z,18.13
2018-03-17T13:05:38.492Z,17.77
2018-03-17T13:08:06.807Z,17.43
2018-03-17T13:10:34.372Z,17.23
2018-03-17T13:13:01.958Z,16.60
2018-03-17T13:15:29.627Z,16.70
2018-03-17T13:17:57.193Z,16.77
2018-03-17T13:20:24.784Z,16.33
2018-03-17T13:23:05.102Z,14.90
2018-03-17T13:25:32.671Z,14.47
2018-03-17T13:28:12.154Z,13.27
2018-03-17T13:30:40.452Z,14.20
2018-03-17T13:33:08.022Z,15.70
2018-03-17T13:35:47.488Z,14.87
2018-03-17T13:38:15.051Z,13.57
2018-03-17T13:40:42.615Z,14.57
2018-03-17T13:43:10.266Z,13.97
2018-03-17T13:45:37.851Z,14.23
2018-03-17T13:48:05.412Z,14.23
2018-03-17T13:50:33.061Z,13.97
2018-03-17T13:53:00.614Z,14.30
2018-03-17T13:55:28.285Z,14.60
2018-03-17T13:57:55.867Z,14.30
2018-03-17T14:00:24.220Z,14.93
2018-03-17T14:02:51.893Z,14.00
2018-03-17T14:05:19.463Z,14.10
2018-03-17T14:07:47.106Z,13.73
2018-03-17T14:10:14.658Z,13.93
2018-03-17T14:12:42.238Z,13.77
2018-03-17T14:15:09.892Z,13.30
2018-03-17T14:17:37.455Z,12.83
2018-03-17T14:20:05.041Z,13.70
2018-03-17T14:22:33.379Z,14.07
2018-03-17T14:25:00.932Z,14.40
2018-03-17T14:27:28.532Z,14.10
2018-03-17T14:29:56.175Z,14.17
2018-03-17T14:32:23.837Z,13.77
2018-03-17T14:34:51.445Z,14.07
2018-03-17T14:37:19.767Z,13.80
2018-03-17T14:39:47.336Z,14.07
2018-03-17T14:42:15.000Z,12.90
2018-03-17T14:44:42.556Z,14.43
2018-03-17T14:47:10.103Z,13.50
2018-03-17T14:49:37.775Z,13.60
2018-03-17T14:52:05.353Z,13.90
2018-03-17T14:54:32.922Z,14.63
2018-03-17T14:57:00.502Z,14.30
2018-03-17T14:59:28.831Z,14.93
2018-03-17T15:01:56.401Z,17.90
2018-03-17T15:04:23.961Z,15.03
2018-03-17T15:06:51.522Z,16.53
2018-03-17T15:09:19.080Z,14.07
2018-03-17T15:11:46.663Z,15.03
2018-03-17T15:14:14.230Z,15.17
2018-03-17T15:16:41.811Z,14.00
2018-03-17T15:19:10.258Z,14.50
2018-03-17T15:21:37.816Z,14.93
2018-03-17T15:24:05.488Z,15.13
2018-03-17T15:26:33.082Z,14.83
2018-03-17T15:29:01.422Z,15.80
2018-03-17T15:31:29.099Z,15.30
2018-03-17T15:33:56.752Z,13.80
2018-03-17T15:36:24.407Z,13.97
2018-03-17T15:38:51.972Z,17.07
2018-03-17T15:41:19.636Z,14.77
2018-03-17T15:43:47.303Z,13.67
2018-03-17T15:46:14.884Z,15.17
2018-03-17T15:48:42.526Z,13.73
2018-03-17T15:51:10.090Z,15.47
2018-03-17T15:53:37.747Z,15.47
2018-03-17T15:56:05.330Z,14.83
2018-03-17T15:58:32.891Z,13.33
2018-03-17T16:01:00.535Z,12.97
2018-03-17T16:03:28.209Z,13.37
2018-03-17T16:05:55.774Z,13.53
2018-03-17T16:08:24.128Z,14.07
2018-03-17T16:10:51.791Z,13.03
2018-03-17T16:13:19.349Z,14.17
2018-03-17T16:15:46.906Z,12.93
2018-03-17T16:18:14.569Z,14.10
2018-03-17T16:20:42.127Z,13.83
2018-03-17T16:23:09.842Z,13.17
2018-03-17T16:25:38.184Z,13.40
2018-03-17T16:28:05.751Z,12.60
2018-03-17T16:30:33.301Z,13.13
2018-03-17T16:33:00.882Z,13.30
2018-03-17T16:35:28.432Z,13.70
2018-03-17T16:37:55.983Z,15.00
2018-03-17T16:40:23.666Z,13.30
2018-03-17T16:42:51.233Z,12.93
2018-03-17T16:45:18.914Z,14.03
2018-03-17T16:47:46.504Z,12.97
2018-03-17T16:50:14.076Z,15.00
2018-03-17T16:52:41.658Z,13.63
2018-03-17T16:55:09.400Z,12.97
2018-03-17T16:57:36.959Z,14.20
2018-03-17T17:00:04.522Z,13.67
2018-03-17T17:02:32.073Z,12.83
2018-03-17T17:04:59.640Z,15.07
2018-03-17T17:07:27.197Z,12.37
2018-03-17T17:09:54.781Z,13.63
2018-03-17T17:12:22.343Z,12.00
2018-03-17T17:14:49.894Z,13.13
2018-03-17T17:17:17.498Z,12.13
2018-03-17T17:19:45.130Z,14.93
2018-03-17T17:22:12.691Z,12.37
2018-03-17T17:24:40.373Z,12.67
2018-03-17T17:27:09.447Z,13.60
2018-03-17T17:29:37.010Z,12.13
2018-03-17T17:32:04.565Z,17.67
2018-03-17T17:34:32.125Z,13.37
2018-03-17T17:36:59.711Z,13.23
2018-03-17T17:39:27.301Z,14.07
2018-03-17T17:41:55.724Z,13.50
2018-03-17T17:44:23.292Z,12.97
2018-03-17T17:46:50.857Z,14.13
2018-03-17T17:49:18.427Z,13.70
2018-03-17T17:51:46.091Z,12.20
2018-03-17T17:54:13.759Z,12.10
2018-03-17T17:56:41.426Z,12.07
2018-03-17T17:59:08.992Z,12.87
2018-03-17T18:01:36.661Z,13.10
2018-03-17T18:04:04.304Z,13.20
2018-03-17T18:06:31.862Z,13.60
2018-03-17T18:08:59.526Z,13.83
2018-03-17T18:11:27.104Z,12.57
2018-03-17T18:13:54.750Z,13.40
2018-03-17T18:16:22.342Z,12.77
2018-03-17T18:18:49.894Z,14.97
2018-03-17T18:21:17.473Z,12.73
2018-03-17T18:23:45.811Z,13.87
2018-03-17T18:26:13.368Z,14.23
2018-03-17T18:28:40.996Z,14.83
2018-03-17T18:31:08.577Z,13.67
2018-03-17T18:33:36.135Z,12.00
2018-03-17T18:36:03.713Z,12.97
2018-03-17T18:38:31.385Z,12.70
2018-03-17T18:40:58.966Z,14.40
2018-03-17T18:43:26.532Z,13.00
2018-03-17T18:45:54.104Z,13.30
2018-03-17T18:48:25.276Z,12.57
2018-03-17T18:50:52.886Z,12.67
2018-03-17T18:53:20.459Z,14.13
2018-03-17T18:55:48.790Z,12.33
2018-03-17T18:58:16.352Z,13.10
2018-03-17T19:00:43.927Z,13.67
2018-03-17T19:03:11.494Z,14.70
2018-03-17T19:05:39.091Z,14.27
2018-03-17T19:08:07.443Z,16.67
2018-03-17T19:10:35.011Z,13.87
2018-03-17T19:13:02.667Z,13.20
2018-03-17T19:15:30.252Z,14.07
2018-03-17T19:17:57.820Z,13.70
2018-03-17T19:20:26.179Z,13.23
2018-03-17T19:22:53.763Z,13.83
2018-03-17T19:25:22.112Z,13.83
2018-03-17T19:27:49.678Z,14.90
2018-03-17T19:30:17.275Z,14.40
2018-03-17T19:32:45.603Z,14.37
2018-03-17T19:35:13.173Z,13.43
2018-03-17T19:37:40.851Z,14.63
2018-03-17T19:40:09.214Z,13.73
2018-03-17T19:42:36.925Z,13.33
2018-03-17T19:45:04.545Z,14.03
2018-03-17T19:47:32.202Z,13.00
2018-03-17T19:49:59.858Z,14.47
2018-03-17T19:52:27.532Z,13.00
2018-03-17T19:54:55.208Z,13.97
2018-03-17T19:57:23.534Z,13.90
2018-03-17T19:59:51.130Z,15.27
2018-03-17T20:02:18.680Z,13.20
2018-03-17T20:04:46.238Z,13.43
2018-03-17T20:07:13.819Z,13.53
2018-03-17T20:09:41.378Z,14.17
2018-03-17T20:12:08.957Z,13.30
2018-03-17T20:14:36.532Z,13.53
2018-03-17T20:17:04.875Z,14.67
2018-03-17T20:19:32.456Z,13.60
2018-03-17T20:22:00.026Z,14.27
2018-03-17T20:24:27.589Z,13.70
2018-03-17T20:26:55.948Z,14.13
2018-03-17T20:29:23.520Z,13.53
2018-03-17T20:31:51.095Z,14.03
2018-03-17T20:34:19.426Z,14.70
2018-03-17T20:36:47.013Z,13.23
2018-03-17T20:39:14.567Z,13.83
2018-03-17T20:41:42.126Z,13.57
2018-03-17T20:44:09.972Z,13.47
2018-03-17T20:46:37.547Z,14.20
2018-03-17T20:49:05.107Z,13.93
2018-03-17T20:51:32.672Z,14.10
2018-03-17T20:54:00.339Z,13.37
2018-03-17T20:56:27.895Z,14.07
2018-03-17T20:58:55.478Z,14.00
2018-03-17T21:01:23.123Z,14.80
2018-03-17T21:03:50.784Z,13.93
2018-03-17T21:06:18.344Z,13.97
2018-03-17T21:08:45.903Z,13.57
2018-03-17T21:11:13.474Z,13.13
2018-03-17T21:13:41.031Z,14.70
2018-03-17T21:16:08.682Z,16.47
2018-03-17T21:18:36.250Z,13.57
2018-03-17T21:21:03.821Z,13.27
2018-03-17T21:23:31.391Z,13.00
2018-03-17T21:25:58.964Z,13.43
2018-03-17T21:28:26.546Z,13.03
2018-03-17T21:30:54.978Z,13.27
2018-03-17T21:33:22.925Z,15.10
2018-03-17T21:35:50.501Z,13.13
2018-03-17T21:38:18.085Z,12.93
2018-03-17T21:40:45.743Z,13.03
2018-03-17T21:43:13.326Z,14.00
2018-03-17T21:45:41.681Z,13.57
2018-03-17T21:48:09.234Z,13.63
2018-03-17T21:50:36.898Z,13.20
2018-03-17T21:53:04.460Z,13.43
2018-03-17T21:55:32.198Z,13.60
2018-03-17T21:58:00.712Z,14.07
2018-03-17T22:00:28.357Z,13.37
2018-03-17T22:02:55.940Z,13.17
2018-03-17T22:05:23.591Z,16.60
2018-03-17T22:07:51.213Z,12.80
2018-03-17T22:10:19.615Z,13.53
2018-03-17T22:12:47.183Z,13.90
2018-03-17T22:15:14.752Z,13.27
2018-03-17T22:17:42.299Z,13.73
2018-03-17T22:20:10.027Z,13.43
2018-03-17T22:22:37.640Z,14.60
2018-03-17T22:25:05.190Z,13.43
2018-03-17T22:27:32.876Z,14.13
2018-03-17T22:30:00.434Z,14.23
2018-03-17T22:32:27.986Z,14.17
2018-03-17T22:34:55.567Z,13.50
2018-03-17T22:37:23.231Z,13.40
2018-03-17T22:39:50.897Z,12.83
2018-03-17T22:42:18.481Z,12.17
2018-03-17T22:44:46.797Z,14.00
2018-03-17T22:47:14.368Z,12.43
2018-03-17T22:49:42.053Z,13.80
2018-03-17T22:52:09.616Z,13.73
2018-03-17T22:54:37.266Z,12.97
2018-03-17T22:57:04.926Z,14.70
2018-03-17T22:59:32.494Z,13.43
2018-03-17T23:02:00.063Z,15.73
2018-03-17T23:04:27.638Z,13.03
2018-03-17T23:06:55.285Z,14.97
2018-03-17T23:09:22.864Z,14.70
2018-03-17T23:11:50.446Z,13.70
2018-03-17T23:14:18.894Z,12.50
2018-03-17T23:16:46.557Z,14.13
2018-03-17T23:19:14.208Z,13.67
2018-03-17T23:21:41.761Z,13.40
2018-03-17T23:24:09.307Z,14.00
2018-03-17T23:26:36.886Z,14.27
2018-03-17T23:29:04.440Z,12.70
2018-03-17T23:31:32.015Z,16.73
2018-03-17T23:33:59.592Z,14.40
2018-03-17T23:36:27.157Z,13.37
2018-03-17T23:38:54.722Z,14.87
2018-03-17T23:41:22.320Z,13.40
2018-03-17T23:43:49.878Z,13.43
2018-03-17T23:46:17.424Z,13.50
2018-03-17T23:48:45.767Z,13.27
2018-03-17T23:51:13.321Z,13.50
2018-03-17T23:53:40.877Z,13.47
2018-03-17T23:56:08.442Z,13.03
2018-03-17T23:58:36.032Z,12.10
